sensor_id;sensor_type;location;lat;lon;timestamp;pressure;altitude;pressure_sealevel;temperature;humidity
46598;BME280;32318;48.858;8.252;2023-02-01T00:02:46;101098.97;;;4.22;83.87
46598;BME280;32318;48.858;8.252;2023-02-01T00:10:46;101099.91;;;4.21;84.00
46598;BME280;32318;48.858;8.252;2023-02-01T00:18:49;101078.47;;;4.26;82.88
46598;BME280;32318;48.858;8.252;2023-02-01T00:26:50;101067.78;;;4.28;83.74
46598;BME280;32318;48.858;8.252;2023-02-01T00:34:50;101060.72;;;4.28;83.36
46598;BME280;32318;48.858;8.252;2023-02-01T00:42:50;101061.53;;;4.29;83.23
46598;BME280;32318;48.858;8.252;2023-02-01T00:50:50;101066.09;;;4.27;84.28
46598;BME280;32318;48.858;8.252;2023-02-01T00:58:51;101062.59;;;4.26;84.13
46598;BME280;32318;48.858;8.252;2023-02-01T01:06:51;101035.22;;;4.27;83.82
46598;BME280;32318;48.858;8.252;2023-02-01T01:14:51;101036.16;;;4.26;83.63
46598;BME280;32318;48.858;8.252;2023-02-01T01:22:52;101046.44;;;4.31;83.57
46598;BME280;32318;48.858;8.252;2023-02-01T01:30:52;101048.13;;;4.32;83.51
46598;BME280;32318;48.858;8.252;2023-02-01T01:38:52;101052.25;;;4.36;83.35
46598;BME280;32318;48.858;8.252;2023-02-01T01:46:52;101038.06;;;4.37;83.49
46598;BME280;32318;48.858;8.252;2023-02-01T01:54:53;101020.53;;;4.36;83.79
46598;BME280;32318;48.858;8.252;2023-02-01T02:03:11;101012.91;;;4.31;84.49
46598;BME280;32318;48.858;8.252;2023-02-01T02:11:16;101010.69;;;4.25;85.39
46598;BME280;32318;48.858;8.252;2023-02-01T02:19:30;101016.91;;;4.24;85.20
46598;BME280;32318;48.858;8.252;2023-02-01T02:44:49;100998.22;;;4.27;84.46
46598;BME280;32318;48.858;8.252;2023-02-01T02:53:19;101005.81;;;4.19;85.40
46598;BME280;32318;48.858;8.252;2023-02-01T03:01:40;100999.47;;;4.21;85.01
46598;BME280;32318;48.858;8.252;2023-02-01T03:10:05;101001.16;;;4.22;84.62
46598;BME280;32318;48.858;8.252;2023-02-01T03:18:14;100991.22;;;4.26;84.66
46598;BME280;32318;48.858;8.252;2023-02-01T03:26:17;100986.59;;;4.30;83.66
46598;BME280;32318;48.858;8.252;2023-02-01T03:34:18;100977.59;;;4.32;83.77
46598;BME280;32318;48.858;8.252;2023-02-01T03:42:24;100954.66;;;4.33;83.78
46598;BME280;32318;48.858;8.252;2023-02-01T03:50:28;100930.94;;;4.31;83.42
46598;BME280;32318;48.858;8.252;2023-02-01T03:58:29;100956.44;;;4.32;83.15
46598;BME280;32318;48.858;8.252;2023-02-01T04:06:29;100985.09;;;4.38;82.83
46598;BME280;32318;48.858;8.252;2023-02-01T04:14:30;100962.91;;;4.41;82.11
46598;BME280;32318;48.858;8.252;2023-02-01T04:22:30;100969.78;;;4.44;82.60
46598;BME280;32318;48.858;8.252;2023-02-01T04:30:31;100971.16;;;4.49;81.70
46598;BME280;32318;48.858;8.252;2023-02-01T04:38:31;100964.69;;;4.53;81.55
46598;BME280;32318;48.858;8.252;2023-02-01T04:46:32;100974.81;;;4.60;81.52
46598;BME280;32318;48.858;8.252;2023-02-01T04:54:32;100983.19;;;4.53;82.52
46598;BME280;32318;48.858;8.252;2023-02-01T05:02:33;100987.09;;;4.48;82.94
46598;BME280;32318;48.858;8.252;2023-02-01T05:10:33;100997.16;;;4.43;83.16
46598;BME280;32318;48.858;8.252;2023-02-01T05:18:33;101007.41;;;4.34;84.51
46598;BME280;32318;48.858;8.252;2023-02-01T05:26:37;101005.09;;;4.30;84.10
46598;BME280;32318;48.858;8.252;2023-02-01T05:34:38;101018.31;;;4.30;84.07
46598;BME280;32318;48.858;8.252;2023-02-01T05:42:38;101013.84;;;4.30;83.64
46598;BME280;32318;48.858;8.252;2023-02-01T05:50:38;101010.19;;;4.33;83.33
46598;BME280;32318;48.858;8.252;2023-02-01T05:58:38;101002.97;;;4.35;83.15
46598;BME280;32318;48.858;8.252;2023-02-01T06:06:39;100994.31;;;4.33;82.97
46598;BME280;32318;48.858;8.252;2023-02-01T06:14:39;100985.72;;;4.29;82.80
46598;BME280;32318;48.858;8.252;2023-02-01T06:22:40;100982.03;;;4.32;82.81
46598;BME280;32318;48.858;8.252;2023-02-01T06:30:40;100983.94;;;4.30;82.23
46598;BME280;32318;48.858;8.252;2023-02-01T06:38:43;100997.78;;;4.33;82.34
46598;BME280;32318;48.858;8.252;2023-02-01T06:46:43;100994.09;;;4.36;82.18
46598;BME280;32318;48.858;8.252;2023-02-01T06:54:43;101005.94;;;4.43;81.91
46598;BME280;32318;48.858;8.252;2023-02-01T07:02:44;101007.63;;;4.44;82.12
46598;BME280;32318;48.858;8.252;2023-02-01T07:10:44;101035.25;;;4.53;81.46
46598;BME280;32318;48.858;8.252;2023-02-01T07:18:45;101057.25;;;4.53;82.09
46598;BME280;32318;48.858;8.252;2023-02-01T07:26:45;101052.91;;;4.52;82.24
46598;BME280;32318;48.858;8.252;2023-02-01T07:34:47;101059.25;;;4.50;82.44
46598;BME280;32318;48.858;8.252;2023-02-01T07:42:48;101051.50;;;4.47;82.54
46598;BME280;32318;48.858;8.252;2023-02-01T07:50:57;101051.63;;;4.45;82.09
46598;BME280;32318;48.858;8.252;2023-02-01T07:58:57;101043.56;;;4.47;82.75
46598;BME280;32318;48.858;8.252;2023-02-01T08:06:59;101032.16;;;4.46;82.80
46598;BME280;32318;48.858;8.252;2023-02-01T08:15:00;101033.00;;;4.47;83.27
46598;BME280;32318;48.858;8.252;2023-02-01T08:23:00;101049.72;;;4.47;82.51
46598;BME280;32318;48.858;8.252;2023-02-01T08:31:07;101035.13;;;4.54;82.95
46598;BME280;32318;48.858;8.252;2023-02-01T08:39:10;101087.41;;;4.64;82.29
46598;BME280;32318;48.858;8.252;2023-02-01T08:47:10;101088.66;;;4.71;82.32
46598;BME280;32318;48.858;8.252;2023-02-01T08:55:12;101092.06;;;4.73;82.20
46598;BME280;32318;48.858;8.252;2023-02-01T09:03:12;101102.34;;;4.78;81.88
46598;BME280;32318;48.858;8.252;2023-02-01T09:11:16;101102.44;;;4.76;81.78
46598;BME280;32318;48.858;8.252;2023-02-01T09:19:16;101107.19;;;4.84;81.26
46598;BME280;32318;48.858;8.252;2023-02-01T09:27:17;101113.88;;;5.02;81.18
46598;BME280;32318;48.858;8.252;2023-02-01T09:35:17;101124.44;;;5.15;80.63
46598;BME280;32318;48.858;8.252;2023-02-01T09:51:36;101097.50;;;5.34;78.95
46598;BME280;32318;48.858;8.252;2023-02-01T09:59:43;101129.28;;;5.47;78.27
46598;BME280;32318;48.858;8.252;2023-02-01T10:07:55;101141.22;;;5.53;78.75
46598;BME280;32318;48.858;8.252;2023-02-01T10:16:16;101162.97;;;5.58;78.11
46598;BME280;32318;48.858;8.252;2023-02-01T10:32:26;101155.41;;;5.65;77.97
46598;BME280;32318;48.858;8.252;2023-02-01T10:40:28;101137.94;;;5.62;76.83
46598;BME280;32318;48.858;8.252;2023-02-01T10:48:29;101145.66;;;5.65;76.50
46598;BME280;32318;48.858;8.252;2023-02-01T10:56:30;101151.03;;;5.77;76.78
46598;BME280;32318;48.858;8.252;2023-02-01T11:04:34;101137.78;;;5.77;76.73
46598;BME280;32318;48.858;8.252;2023-02-01T11:12:37;101130.16;;;5.72;77.00
46598;BME280;32318;48.858;8.252;2023-02-01T11:20:39;101114.94;;;5.63;77.38
46598;BME280;32318;48.858;8.252;2023-02-01T11:28:46;101094.47;;;5.65;77.32
46598;BME280;32318;48.858;8.252;2023-02-01T11:36:49;101082.81;;;5.68;77.69
46598;BME280;32318;48.858;8.252;2023-02-01T11:44:50;101086.22;;;5.57;78.84
46598;BME280;32318;48.858;8.252;2023-02-01T12:09:14;101060.03;;;5.65;79.35
46598;BME280;32318;48.858;8.252;2023-02-01T12:17:41;101060.97;;;5.64;79.00
46598;BME280;32318;48.858;8.252;2023-02-01T12:42:20;101056.72;;;5.74;77.63
46598;BME280;32318;48.858;8.252;2023-02-01T12:50:29;101050.47;;;5.75;79.61
46598;BME280;32318;48.858;8.252;2023-02-01T12:58:46;101048.13;;;5.71;79.93
46598;BME280;32318;48.858;8.252;2023-02-01T13:06:51;101061.97;;;5.63;80.56
46598;BME280;32318;48.858;8.252;2023-02-01T13:15:02;101057.50;;;5.63;81.48
46598;BME280;32318;48.858;8.252;2023-02-01T13:23:25;101021.25;;;5.64;80.31
46598;BME280;32318;48.858;8.252;2023-02-01T13:47:59;100986.75;;;5.77;79.46
46598;BME280;32318;48.858;8.252;2023-02-01T13:56:24;100987.13;;;5.84;77.17
46598;BME280;32318;48.858;8.252;2023-02-01T14:04:59;100988.13;;;5.94;75.81
46598;BME280;32318;48.858;8.252;2023-02-01T14:13:03;101004.47;;;6.01;75.30
46598;BME280;32318;48.858;8.252;2023-02-01T14:29:38;101029.69;;;6.06;74.21
46598;BME280;32318;48.858;8.252;2023-02-01T14:37:39;101019.91;;;6.07;74.07
46598;BME280;32318;48.858;8.252;2023-02-01T14:53:40;101018.81;;;6.09;73.68
46598;BME280;32318;48.858;8.252;2023-02-01T15:01:56;101025.81;;;6.10;73.35
46598;BME280;32318;48.858;8.252;2023-02-01T15:09:57;101022.69;;;6.17;73.52
46598;BME280;32318;48.858;8.252;2023-02-01T15:17:59;101017.78;;;6.23;73.47
46598;BME280;32318;48.858;8.252;2023-02-01T15:26:00;101022.94;;;6.25;73.08
46598;BME280;32318;48.858;8.252;2023-02-01T15:34:00;101018.13;;;6.19;72.94
46598;BME280;32318;48.858;8.252;2023-02-01T15:42:10;101022.22;;;6.11;73.21
46598;BME280;32318;48.858;8.252;2023-02-01T15:50:13;101031.59;;;6.04;72.85
46598;BME280;32318;48.858;8.252;2023-02-01T15:58:19;101033.38;;;6.04;72.47
46598;BME280;32318;48.858;8.252;2023-02-01T16:14:20;101034.97;;;6.06;72.23
46598;BME280;32318;48.858;8.252;2023-02-01T16:22:21;101014.72;;;6.05;71.74
46598;BME280;32318;48.858;8.252;2023-02-01T16:30:21;101019.28;;;6.03;71.50
46598;BME280;32318;48.858;8.252;2023-02-01T16:38:23;101038.69;;;6.04;71.81
46598;BME280;32318;48.858;8.252;2023-02-01T16:46:25;101048.56;;;6.02;71.89
46598;BME280;32318;48.858;8.252;2023-02-01T16:54:26;101064.88;;;5.95;72.25
46598;BME280;32318;48.858;8.252;2023-02-01T17:02:26;101084.72;;;5.90;72.60
46598;BME280;32318;48.858;8.252;2023-02-01T17:10:27;101080.63;;;5.86;73.74
46598;BME280;32318;48.858;8.252;2023-02-01T17:18:29;101075.25;;;5.74;73.66
46598;BME280;32318;48.858;8.252;2023-02-01T17:26:31;101076.66;;;5.67;73.83
46598;BME280;32318;48.858;8.252;2023-02-01T17:34:32;101081.34;;;5.63;74.53
46598;BME280;32318;48.858;8.252;2023-02-01T17:42:32;101082.91;;;5.66;74.56
46598;BME280;32318;48.858;8.252;2023-02-01T17:50:35;101085.34;;;5.69;73.74
46598;BME280;32318;48.858;8.252;2023-02-01T17:58:36;101067.66;;;5.70;73.77
46598;BME280;32318;48.858;8.252;2023-02-01T18:06:36;101061.38;;;5.71;73.43
46598;BME280;32318;48.858;8.252;2023-02-01T18:14:36;101049.72;;;5.73;73.84
46598;BME280;32318;48.858;8.252;2023-02-01T18:22:36;101060.31;;;5.73;72.86
46598;BME280;32318;48.858;8.252;2023-02-01T18:30:37;101066.47;;;5.74;72.70
46598;BME280;32318;48.858;8.252;2023-02-01T18:38:37;101074.19;;;5.77;72.57
46598;BME280;32318;48.858;8.252;2023-02-01T18:46:37;101082.88;;;5.79;72.15
46598;BME280;32318;48.858;8.252;2023-02-01T18:54:38;101076.84;;;5.77;72.41
46598;BME280;32318;48.858;8.252;2023-02-01T19:02:38;101086.47;;;5.78;72.46
46598;BME280;32318;48.858;8.252;2023-02-01T19:10:40;101071.53;;;5.77;72.95
46598;BME280;32318;48.858;8.252;2023-02-01T19:18:41;101075.38;;;5.73;72.70
46598;BME280;32318;48.858;8.252;2023-02-01T19:26:42;101064.38;;;5.66;73.22
46598;BME280;32318;48.858;8.252;2023-02-01T19:34:42;101059.06;;;5.66;73.52
46598;BME280;32318;48.858;8.252;2023-02-01T19:42:43;101071.38;;;5.67;73.27
46598;BME280;32318;48.858;8.252;2023-02-01T19:50:43;101080.06;;;5.69;73.14
46598;BME280;32318;48.858;8.252;2023-02-01T19:58:44;101071.16;;;5.70;72.77
46598;BME280;32318;48.858;8.252;2023-02-01T20:06:45;101076.22;;;5.73;72.74
46598;BME280;32318;48.858;8.252;2023-02-01T20:14:49;101092.09;;;5.73;72.52
46598;BME280;32318;48.858;8.252;2023-02-01T20:22:51;101100.69;;;5.77;72.51
46598;BME280;32318;48.858;8.252;2023-02-01T20:30:51;101098.88;;;5.77;72.61
46598;BME280;32318;48.858;8.252;2023-02-01T20:38:55;101089.03;;;5.79;73.03
46598;BME280;32318;48.858;8.252;2023-02-01T20:46:55;101105.88;;;5.78;72.82
46598;BME280;32318;48.858;8.252;2023-02-01T20:54:56;101114.78;;;5.77;73.05
46598;BME280;32318;48.858;8.252;2023-02-01T21:02:56;101107.78;;;5.76;73.13
46598;BME280;32318;48.858;8.252;2023-02-01T21:19:00;101124.53;;;5.77;73.47
46598;BME280;32318;48.858;8.252;2023-02-01T21:27:01;101134.13;;;5.67;75.84
46598;BME280;32318;48.858;8.252;2023-02-01T21:35:03;101113.78;;;5.54;77.37
46598;BME280;32318;48.858;8.252;2023-02-01T21:43:03;101108.06;;;5.47;77.94
46598;BME280;32318;48.858;8.252;2023-02-01T21:51:03;101103.22;;;5.41;77.37
46598;BME280;32318;48.858;8.252;2023-02-01T21:59:05;101107.69;;;5.41;77.29
46598;BME280;32318;48.858;8.252;2023-02-01T22:07:05;101098.56;;;5.45;76.95
46598;BME280;32318;48.858;8.252;2023-02-01T22:15:06;101117.72;;;5.48;76.51
46598;BME280;32318;48.858;8.252;2023-02-01T22:23:07;101118.91;;;5.44;77.66
46598;BME280;32318;48.858;8.252;2023-02-01T22:31:08;101123.91;;;5.36;79.32
46598;BME280;32318;48.858;8.252;2023-02-01T22:39:09;101125.31;;;5.29;79.77
46598;BME280;32318;48.858;8.252;2023-02-01T22:47:09;101135.47;;;5.22;81.36
46598;BME280;32318;48.858;8.252;2023-02-01T22:55:09;101132.50;;;5.14;81.39
46598;BME280;32318;48.858;8.252;2023-02-01T23:03:10;101145.50;;;5.04;82.03
46598;BME280;32318;48.858;8.252;2023-02-01T23:11:10;101127.22;;;5.01;81.71
46598;BME280;32318;48.858;8.252;2023-02-01T23:19:10;101112.59;;;4.95;81.52
46598;BME280;32318;48.858;8.252;2023-02-01T23:27:11;101122.31;;;4.95;81.90
46598;BME280;32318;48.858;8.252;2023-02-01T23:35:11;101139.06;;;4.95;81.20
46598;BME280;32318;48.858;8.252;2023-02-01T23:43:11;101119.69;;;4.95;81.47
46598;BME280;32318;48.858;8.252;2023-02-01T23:51:30;101116.63;;;4.88;82.39
46598;BME280;32318;48.858;8.252;2023-02-01T23:59:31;101108.69;;;4.88;83.04
